createdAt,value
2022-09-28T00:00:43.891Z,19.71
2022-09-28T00:03:11.373Z,19.72
2022-09-28T00:05:38.771Z,19.71
2022-09-28T00:08:06.621Z,19.71
2022-09-28T00:10:35.445Z,19.66
2022-09-28T00:13:03.563Z,19.70
2022-09-28T00:15:30.994Z,19.70
2022-09-28T00:17:58.363Z,19.70
2022-09-28T00:20:25.709Z,19.70
2022-09-28T00:22:53.097Z,19.69
2022-09-28T00:25:20.475Z,19.73
2022-09-28T00:27:51.595Z,19.73
2022-09-28T00:30:18.979Z,19.74
2022-09-28T00:32:46.330Z,19.76
2022-09-28T00:35:13.971Z,19.73
2022-09-28T00:37:41.303Z,19.71
2022-09-28T00:40:09.484Z,19.74
2022-09-28T00:42:36.875Z,19.72
2022-09-28T00:45:07.040Z,19.71
2022-09-28T00:47:43.162Z,19.75
2022-09-28T00:50:20.673Z,19.76
2022-09-28T00:52:53.474Z,19.74
2022-09-28T00:55:27.402Z,19.74
2022-09-28T00:57:58.537Z,19.71
2022-09-28T01:00:27.964Z,19.78
2022-09-28T01:02:55.836Z,19.83
2022-09-28T01:05:23.814Z,19.83
2022-09-28T01:07:51.386Z,19.88
2022-09-28T01:10:18.860Z,19.87
2022-09-28T01:12:46.205Z,19.83
2022-09-28T01:15:14.549Z,19.84
2022-09-28T01:17:58.657Z,19.89
2022-09-28T01:20:49.593Z,19.90
2022-09-28T01:23:46.654Z,19.81
2022-09-28T01:26:48.083Z,19.75
2022-09-28T01:29:23.721Z,19.78
2022-09-28T01:32:01.378Z,19.75
2022-09-28T01:34:37.377Z,19.74
2022-09-28T01:37:09.902Z,19.74
2022-09-28T01:39:42.582Z,19.72
2022-09-28T01:42:17.204Z,19.75
2022-09-28T01:44:49.700Z,19.76
2022-09-28T01:47:20.981Z,19.75
2022-09-28T01:49:53.270Z,19.78
2022-09-28T01:52:26.662Z,19.79
2022-09-28T01:54:59.230Z,19.79
2022-09-28T01:57:34.972Z,19.78
2022-09-28T02:00:07.269Z,19.78
2022-09-28T02:02:49.438Z,19.80
2022-09-28T02:05:24.834Z,19.78
2022-09-28T02:07:56.857Z,19.79
2022-09-28T02:10:28.263Z,19.82
2022-09-28T02:13:01.997Z,19.86
2022-09-28T02:15:36.128Z,19.83
2022-09-28T02:18:04.517Z,19.88
2022-09-28T02:20:33.406Z,19.82
2022-09-28T02:23:04.751Z,19.85
2022-09-28T02:25:35.434Z,19.83
2022-09-28T02:28:05.773Z,19.86
2022-09-28T02:30:36.251Z,19.92
2022-09-28T02:33:09.558Z,19.92
2022-09-28T02:35:38.750Z,19.90
2022-09-28T02:38:06.113Z,19.88
2022-09-28T02:40:35.189Z,19.86
2022-09-28T02:43:13.426Z,19.86
2022-09-28T02:45:59.862Z,19.85
2022-09-28T02:49:10.488Z,19.85
2022-09-28T02:51:46.052Z,19.88
2022-09-28T02:54:32.831Z,19.87
2022-09-28T02:57:13.211Z,19.80
2022-09-28T02:59:49.102Z,19.86
2022-09-28T03:02:26.385Z,19.81
2022-09-28T03:05:14.415Z,19.85
2022-09-28T03:07:47.395Z,19.39
2022-09-28T03:10:20.926Z,19.70
2022-09-28T03:12:49.455Z,19.64
2022-09-28T03:15:23.633Z,19.66
2022-09-28T03:17:51.711Z,19.74
2022-09-28T03:20:19.475Z,19.73
2022-09-28T03:23:00.513Z,19.76
2022-09-28T03:25:34.467Z,19.76
2022-09-28T03:28:02.956Z,19.75
2022-09-28T03:30:35.262Z,19.76
2022-09-28T03:33:02.731Z,19.82
2022-09-28T03:35:32.497Z,19.77
2022-09-28T03:37:59.931Z,19.81
2022-09-28T03:40:29.362Z,20.04
2022-09-28T03:42:57.144Z,20.25
2022-09-28T03:45:25.139Z,20.39
2022-09-28T03:47:54.319Z,20.42
2022-09-28T03:50:21.778Z,20.42
2022-09-28T03:52:49.258Z,20.36
2022-09-28T03:55:16.886Z,20.26
2022-09-28T03:57:44.264Z,20.10
2022-09-28T04:00:12.942Z,19.99
2022-09-28T04:02:43.749Z,19.93
2022-09-28T04:05:12.819Z,19.96
2022-09-28T04:07:40.154Z,19.97
2022-09-28T04:10:08.759Z,19.93
2022-09-28T04:12:36.142Z,20.04
2022-09-28T04:15:05.549Z,20.04
2022-09-28T04:17:36.495Z,20.04
2022-09-28T04:20:09.714Z,19.98
2022-09-28T04:22:46.990Z,20.01
2022-09-28T04:25:14.516Z,20.03
2022-09-28T04:27:41.875Z,20.06
2022-09-28T04:30:10.992Z,20.08
2022-09-28T04:32:39.344Z,20.06
2022-09-28T04:35:09.153Z,20.12
2022-09-28T04:37:36.131Z,20.03
2022-09-28T04:40:06.031Z,20.07
2022-09-28T04:42:34.346Z,20.15
2022-09-28T04:45:01.683Z,20.22
2022-09-28T04:47:29.967Z,20.35
2022-09-28T04:50:23.573Z,20.33
2022-09-28T04:53:09.379Z,20.44
2022-09-28T04:55:38.887Z,20.40
2022-09-28T04:58:06.308Z,20.28
2022-09-28T05:00:33.717Z,20.36
2022-09-28T05:03:21.864Z,20.21
2022-09-28T05:06:14.254Z,20.36
2022-09-28T05:08:44.227Z,20.36
2022-09-28T05:11:14.298Z,20.38
2022-09-28T05:13:43.174Z,20.40
2022-09-28T05:16:11.165Z,20.32
2022-09-28T05:18:58.495Z,20.30
2022-09-28T05:21:26.346Z,20.30
2022-09-28T05:23:53.984Z,20.44
2022-09-28T05:26:22.940Z,20.27
2022-09-28T05:28:50.330Z,20.29
2022-09-28T05:31:23.611Z,20.24
2022-09-28T05:34:20.897Z,20.33
2022-09-28T05:36:48.527Z,20.38
2022-09-28T05:39:17.350Z,20.44
2022-09-28T05:41:47.050Z,20.47
2022-09-28T05:44:14.577Z,20.26
2022-09-28T05:46:42.080Z,20.10
2022-09-28T05:49:10.783Z,20.00
2022-09-28T05:51:38.189Z,19.83
2022-09-28T05:54:06.530Z,19.55
2022-09-28T05:56:38.246Z,19.58
2022-09-28T05:59:08.944Z,19.48
2022-09-28T06:01:37.406Z,19.93
2022-09-28T06:04:08.326Z,20.08
2022-09-28T06:06:36.226Z,20.15
2022-09-28T06:09:03.872Z,20.15
2022-09-28T06:11:58.721Z,20.09
2022-09-28T06:14:53.596Z,19.99
2022-09-28T06:17:22.302Z,20.04
2022-09-28T06:19:58.931Z,19.90
2022-09-28T06:22:31.323Z,20.02
2022-09-28T06:25:04.747Z,19.88
2022-09-28T06:27:32.357Z,19.62
2022-09-28T06:30:01.339Z,19.63
2022-09-28T06:32:30.072Z,19.48
2022-09-28T06:34:57.918Z,19.51
2022-09-28T06:37:27.217Z,19.56
2022-09-28T06:39:55.501Z,19.43
2022-09-28T06:42:23.179Z,19.57
2022-09-28T06:45:11.381Z,19.82
2022-09-28T06:48:04.811Z,20.28
2022-09-28T06:50:41.015Z,20.16
2022-09-28T06:53:34.319Z,20.23
2022-09-28T06:56:32.880Z,20.21
2022-09-28T06:59:00.747Z,19.91
2022-09-28T07:01:30.646Z,19.65
2022-09-28T07:04:06.094Z,20.07
2022-09-28T07:06:51.945Z,20.19
2022-09-28T07:09:50.341Z,20.26
2022-09-28T07:12:35.704Z,20.19
2022-09-28T07:15:21.975Z,20.24
2022-09-28T07:18:02.064Z,20.22
2022-09-28T07:20:33.376Z,20.20
2022-09-28T07:23:17.360Z,20.18
2022-09-28T07:26:24.949Z,19.74
2022-09-28T07:29:05.854Z,20.13
2022-09-28T07:31:59.435Z,19.95
2022-09-28T07:34:28.308Z,19.88
2022-09-28T07:37:04.947Z,19.90
2022-09-28T07:39:32.335Z,19.95
2022-09-28T07:42:02.905Z,19.89
2022-09-28T07:44:31.821Z,20.07
2022-09-28T07:47:00.705Z,20.22
2022-09-28T07:49:41.575Z,20.35
2022-09-28T07:52:15.279Z,20.38
2022-09-28T07:55:07.385Z,20.46
2022-09-28T07:57:56.833Z,20.42
2022-09-28T08:00:44.509Z,20.49
2022-09-28T08:03:11.857Z,20.52
2022-09-28T08:05:40.758Z,20.54
2022-09-28T08:08:08.434Z,20.53
2022-09-28T08:10:36.038Z,20.53
2022-09-28T08:13:22.247Z,20.56
2022-09-28T08:16:13.931Z,20.55
2022-09-28T08:18:51.094Z,20.46
2022-09-28T08:21:21.623Z,20.50
2022-09-28T08:23:49.366Z,20.51
2022-09-28T08:26:16.893Z,20.54
2022-09-28T08:28:45.611Z,20.55
2022-09-28T08:31:31.414Z,20.54
2022-09-28T08:34:22.219Z,20.49
2022-09-28T08:37:09.562Z,20.49
2022-09-28T08:39:55.432Z,20.41
2022-09-28T08:42:51.583Z,20.32
2022-09-28T08:45:30.971Z,20.34
2022-09-28T08:48:04.568Z,20.46
2022-09-28T08:50:46.141Z,20.50
2022-09-28T08:53:41.213Z,20.53
2022-09-28T08:56:18.941Z,20.55
2022-09-28T08:58:54.822Z,20.50
2022-09-28T09:01:26.855Z,20.58
2022-09-28T09:03:56.155Z,20.62
2022-09-28T09:07:07.064Z,20.55
2022-09-28T09:09:55.846Z,20.56
2022-09-28T09:12:32.247Z,20.60
2022-09-28T09:15:24.445Z,20.62
2022-09-28T09:18:07.847Z,20.62
2022-09-28T09:20:57.526Z,20.61
2022-09-28T09:23:37.931Z,20.64
2022-09-28T09:26:17.267Z,20.68
2022-09-28T09:29:17.391Z,20.59
2022-09-28T09:32:07.353Z,20.50
2022-09-28T09:34:57.629Z,20.58
2022-09-28T09:38:20.753Z,20.52
2022-09-28T09:41:20.837Z,20.63
2022-09-28T09:44:23.272Z,20.72
2022-09-28T09:46:55.216Z,20.59
2022-09-28T09:49:50.328Z,20.32
2022-09-28T09:52:23.366Z,20.60
2022-09-28T09:54:55.959Z,20.47
2022-09-28T09:57:51.096Z,20.58
2022-09-28T10:00:54.362Z,20.62
2022-09-28T10:03:44.558Z,20.72
2022-09-28T10:06:20.374Z,20.76
2022-09-28T10:08:52.565Z,20.76
2022-09-28T10:11:28.378Z,20.78
2022-09-28T10:13:58.038Z,20.76
2022-09-28T10:16:41.681Z,20.74
2022-09-28T10:19:16.782Z,20.77
2022-09-28T10:22:05.676Z,20.75
2022-09-28T10:24:38.715Z,20.76
2022-09-28T10:27:11.530Z,20.81
2022-09-28T10:29:52.337Z,20.81
2022-09-28T10:32:22.718Z,20.78
2022-09-28T10:34:53.559Z,20.85
2022-09-28T10:37:24.183Z,20.84
2022-09-28T10:43:25.556Z,20.92
2022-09-28T10:46:05.300Z,20.91
2022-09-28T10:48:49.832Z,20.89
2022-09-28T10:51:17.823Z,20.86
2022-09-28T10:53:59.868Z,20.94
2022-09-28T10:56:47.383Z,20.90
2022-09-28T10:59:37.261Z,20.87
2022-09-28T11:02:29.491Z,20.78
2022-09-28T11:05:06.641Z,20.75
2022-09-28T11:07:46.258Z,20.83
2022-09-28T11:10:21.613Z,20.84
2022-09-28T11:12:50.360Z,20.89
2022-09-28T11:15:21.421Z,20.86
2022-09-28T11:17:52.416Z,20.92
2022-09-28T11:20:32.755Z,19.96
2022-09-28T11:23:18.603Z,20.05
2022-09-28T11:25:57.669Z,20.47
2022-09-28T11:28:30.767Z,20.60
2022-09-28T11:30:59.716Z,20.66
2022-09-28T11:33:35.714Z,20.74
2022-09-28T11:36:32.708Z,20.86
2022-09-28T11:39:08.474Z,20.88
2022-09-28T11:41:59.776Z,20.91
2022-09-28T11:44:39.142Z,20.93
2022-09-28T11:47:33.212Z,20.96
2022-09-28T11:50:08.066Z,20.93
2022-09-28T11:52:43.962Z,20.97
2022-09-28T11:55:17.332Z,20.49
2022-09-28T11:57:48.911Z,20.84
2022-09-28T12:00:20.724Z,20.86
2022-09-28T12:02:55.990Z,20.93
2022-09-28T12:05:30.815Z,20.91
2022-09-28T12:08:01.998Z,20.93
2022-09-28T12:10:54.640Z,20.95
2022-09-28T12:13:41.843Z,20.96
2022-09-28T12:16:38.752Z,20.96
2022-09-28T12:19:07.288Z,20.95
2022-09-28T12:21:40.666Z,20.99
2022-09-28T12:24:16.251Z,21.04
2022-09-28T12:26:48.821Z,21.03
2022-09-28T12:29:21.592Z,20.44
2022-09-28T12:31:59.848Z,20.84
2022-09-28T12:34:27.367Z,20.93
2022-09-28T12:37:09.170Z,20.91
2022-09-28T12:39:58.138Z,20.97
2022-09-28T12:42:44.616Z,20.97
2022-09-28T12:45:27.323Z,20.99
2022-09-28T12:48:14.619Z,20.97
2022-09-28T12:50:56.742Z,20.97
2022-09-28T12:53:42.606Z,21.00
2022-09-28T12:56:19.365Z,21.00
2022-09-28T12:58:59.919Z,20.24
2022-09-28T13:01:47.423Z,20.87
2022-09-28T13:04:53.040Z,20.94
2022-09-28T13:07:29.724Z,20.97
2022-09-28T13:10:10.646Z,21.02
2022-09-28T13:12:50.712Z,21.01
2022-09-28T13:15:40.188Z,21.00
2022-09-28T13:18:14.735Z,21.00
2022-09-28T13:20:56.914Z,20.97
2022-09-28T13:23:27.599Z,21.00
2022-09-28T13:26:01.715Z,21.02
2022-09-28T13:28:31.678Z,21.03
2022-09-28T13:31:01.070Z,21.04
2022-09-28T13:33:32.641Z,21.06
2022-09-28T13:36:00.488Z,21.09
2022-09-28T13:38:46.379Z,21.09
2022-09-28T13:41:22.632Z,21.08
2022-09-28T13:44:23.640Z,21.09
2022-09-28T13:47:15.358Z,21.08
2022-09-28T13:49:58.088Z,21.10
2022-09-28T13:52:37.202Z,20.78
2022-09-28T13:55:19.003Z,21.04
2022-09-28T13:57:53.126Z,21.11
2022-09-28T14:00:25.767Z,21.06
2022-09-28T14:02:56.921Z,21.09
2022-09-28T14:05:45.790Z,21.06
2022-09-28T14:08:44.257Z,21.07
2022-09-28T14:11:48.507Z,21.09
2022-09-28T14:14:45.876Z,21.10
2022-09-28T14:17:49.905Z,21.09
2022-09-28T14:20:19.880Z,21.14
2022-09-28T14:23:12.601Z,21.14
2022-09-28T14:25:44.427Z,21.07
2022-09-28T14:28:34.185Z,21.03
2022-09-28T14:31:07.179Z,21.04
2022-09-28T14:33:35.499Z,20.61
2022-09-28T14:36:06.772Z,20.96
2022-09-28T14:38:38.763Z,21.01
2022-09-28T14:41:09.257Z,21.07
2022-09-28T14:43:56.784Z,21.12
2022-09-28T14:46:37.307Z,21.14
2022-09-28T14:49:26.404Z,21.14
2022-09-28T14:52:02.994Z,21.13
2022-09-28T14:54:40.955Z,21.11
2022-09-28T14:57:17.665Z,21.13
2022-09-28T14:59:45.604Z,21.12
2022-09-28T15:02:23.038Z,21.15
2022-09-28T15:04:54.618Z,21.14
2022-09-28T15:07:24.246Z,21.10
2022-09-28T15:09:53.355Z,21.03
2022-09-28T15:12:24.308Z,21.01
2022-09-28T15:14:54.536Z,21.03
2022-09-28T15:17:27.004Z,21.04
2022-09-28T15:20:10.702Z,21.02
2022-09-28T15:22:45.611Z,21.05
2022-09-28T15:25:14.581Z,21.07
2022-09-28T15:27:41.915Z,21.07
2022-09-28T15:30:21.499Z,21.11
2022-09-28T15:32:50.507Z,21.12
2022-09-28T15:35:21.319Z,21.16
2022-09-28T15:37:49.831Z,21.15
2022-09-28T15:40:20.146Z,21.16
2022-09-28T15:42:47.747Z,21.18
2022-09-28T15:45:25.191Z,21.15
2022-09-28T15:47:57.366Z,21.16
2022-09-28T15:50:27.638Z,21.17
2022-09-28T15:52:57.905Z,21.19
2022-09-28T15:55:28.797Z,21.19
2022-09-28T15:58:07.901Z,21.23
2022-09-28T16:00:35.416Z,21.23
2022-09-28T16:03:21.292Z,21.18
2022-09-28T16:05:50.833Z,21.22
2022-09-28T16:08:20.084Z,21.25
2022-09-28T16:11:08.699Z,21.26
2022-09-28T16:13:37.793Z,21.27
2022-09-28T16:16:05.667Z,21.24
2022-09-28T16:18:39.109Z,21.25
2022-09-28T16:21:37.594Z,21.28
2022-09-28T16:24:05.832Z,21.26
2022-09-28T16:26:35.860Z,21.28
2022-09-28T16:29:08.941Z,21.25
2022-09-28T16:31:36.646Z,21.29
2022-09-28T16:34:18.819Z,21.27
2022-09-28T16:36:48.005Z,21.26
2022-09-28T16:39:16.949Z,21.28
2022-09-28T16:41:48.865Z,21.25
2022-09-28T16:44:23.385Z,21.27
2022-09-28T16:46:52.391Z,21.28
2022-09-28T16:49:23.032Z,21.27
2022-09-28T16:51:50.489Z,21.28
2022-09-28T16:54:19.643Z,21.28
2022-09-28T16:56:47.594Z,21.20
2022-09-28T16:59:15.219Z,21.24
2022-09-28T17:01:43.174Z,21.24
2022-09-28T17:04:10.637Z,21.24
2022-09-28T17:06:39.684Z,21.29
2022-09-28T17:09:09.005Z,21.27
2022-09-28T17:11:36.360Z,21.25
2022-09-28T17:14:04.027Z,21.21
2022-09-28T17:16:58.201Z,21.22
2022-09-28T17:19:22.145Z,21.25
2022-09-28T17:21:51.790Z,21.24
2022-09-28T17:24:19.576Z,21.28
2022-09-28T17:26:49.724Z,21.27
2022-09-28T17:29:17.289Z,21.27
2022-09-28T17:31:46.075Z,21.28
2022-09-28T17:34:15.072Z,21.28
2022-09-28T17:36:43.572Z,21.32
2022-09-28T17:39:14.243Z,21.32
2022-09-28T17:41:41.798Z,21.30
2022-09-28T17:44:09.495Z,21.33
2022-09-28T17:46:39.208Z,21.32
2022-09-28T17:49:10.300Z,21.29
2022-09-28T17:51:38.096Z,21.32
2022-09-28T17:54:07.011Z,21.29
2022-09-28T17:56:36.787Z,21.32
2022-09-28T17:59:04.703Z,20.77
2022-09-28T18:01:33.301Z,20.93
2022-09-28T18:04:01.301Z,21.11
2022-09-28T18:06:28.778Z,21.08
2022-09-28T18:08:56.247Z,21.17
2022-09-28T18:11:23.753Z,21.18
2022-09-28T18:13:52.575Z,21.23
2022-09-28T18:16:20.553Z,21.29
2022-09-28T18:18:48.436Z,21.25
2022-09-28T18:21:15.918Z,21.26
2022-09-28T18:23:43.343Z,21.28
2022-09-28T18:26:14.665Z,21.30
2022-09-28T18:28:42.442Z,21.28
2022-09-28T18:31:13.183Z,21.30
2022-09-28T18:33:41.039Z,21.27
2022-09-28T18:36:09.177Z,21.30
2022-09-28T18:38:37.036Z,21.33
2022-09-28T18:41:08.578Z,21.32
2022-09-28T18:43:36.577Z,21.34
2022-09-28T18:46:08.202Z,21.34
2022-09-28T18:48:37.386Z,21.34
2022-09-28T18:51:08.977Z,21.30
2022-09-28T18:53:37.191Z,21.32
2022-09-28T18:56:09.132Z,21.36
2022-09-28T18:58:37.255Z,21.34
2022-09-28T19:01:28.551Z,21.35
2022-09-28T19:03:59.246Z,21.37
2022-09-28T19:06:26.874Z,21.39
2022-09-28T19:08:55.381Z,21.38
2022-09-28T19:11:23.471Z,21.38
2022-09-28T19:13:51.134Z,21.38
2022-09-28T19:16:20.586Z,21.39
2022-09-28T19:18:48.695Z,21.38
2022-09-28T19:21:17.817Z,21.35
2022-09-28T19:23:49.349Z,21.37
2022-09-28T19:26:19.566Z,21.36
2022-09-28T19:28:47.583Z,21.35
2022-09-28T19:31:15.304Z,21.37
2022-09-28T19:33:42.748Z,21.35
2022-09-28T19:36:12.065Z,21.35
2022-09-28T19:38:41.528Z,21.37
2022-09-28T19:41:09.685Z,21.38
2022-09-28T19:43:37.172Z,21.37
2022-09-28T19:46:06.691Z,21.37
2022-09-28T19:48:35.048Z,21.38
2022-09-28T19:51:04.282Z,21.42
2022-09-28T19:53:33.207Z,21.39
2022-09-28T19:56:03.156Z,21.38
2022-09-28T19:58:33.051Z,21.39
2022-09-28T20:01:00.518Z,21.40
2022-09-28T20:03:28.255Z,21.39
2022-09-28T20:06:00.131Z,21.36
2022-09-28T20:08:28.065Z,21.29
2022-09-28T20:10:55.859Z,21.32
2022-09-28T20:13:30.569Z,21.34
2022-09-28T20:16:03.498Z,21.35
2022-09-28T20:18:33.624Z,21.36
2022-09-28T20:21:04.859Z,21.37
2022-09-28T20:23:32.672Z,21.37
2022-09-28T20:26:00.113Z,21.35
2022-09-28T20:28:28.943Z,21.37
2022-09-28T20:31:02.034Z,21.36
2022-09-28T20:33:29.538Z,21.39
2022-09-28T20:35:56.953Z,21.38
2022-09-28T20:38:24.397Z,21.39
2022-09-28T20:40:51.851Z,21.40
2022-09-28T20:43:19.293Z,21.40
2022-09-28T20:45:49.729Z,21.40
2022-09-28T20:48:17.382Z,21.43
2022-09-28T20:50:44.775Z,21.43
2022-09-28T20:53:12.117Z,21.42
2022-09-28T20:55:39.510Z,21.41
2022-09-28T20:58:06.848Z,21.43
2022-09-28T21:00:34.313Z,21.41
2022-09-28T21:03:03.225Z,21.41
2022-09-28T21:05:30.791Z,21.41
2022-09-28T21:07:58.807Z,21.42
2022-09-28T21:10:26.220Z,21.40
2022-09-28T21:12:53.614Z,21.42
2022-09-28T21:15:20.988Z,21.41
2022-09-28T21:17:48.358Z,21.37
2022-09-28T21:20:17.208Z,21.41
2022-09-28T21:22:44.684Z,21.40
2022-09-28T21:25:12.033Z,21.41
2022-09-28T21:27:39.374Z,21.44
2022-09-28T21:30:08.037Z,21.42
2022-09-28T21:32:35.381Z,21.36
2022-09-28T21:35:02.736Z,21.35
2022-09-28T21:37:31.556Z,21.34
2022-09-28T21:39:58.910Z,21.33
2022-09-28T21:42:26.246Z,21.33
2022-09-28T21:44:57.420Z,21.33
2022-09-28T21:47:26.735Z,21.32
2022-09-28T21:49:54.104Z,21.32
2022-09-28T21:52:21.451Z,21.30
2022-09-28T21:54:50.303Z,21.32
2022-09-28T21:57:17.733Z,21.32
2022-09-28T21:59:45.073Z,21.28
2022-09-28T22:02:12.431Z,21.30
2022-09-28T22:04:39.810Z,21.29
2022-09-28T22:07:07.182Z,21.28
2022-09-28T22:09:34.540Z,21.27
2022-09-28T22:12:03.488Z,21.28
2022-09-28T22:14:30.856Z,21.26
2022-09-28T22:16:58.243Z,21.28
2022-09-28T22:19:26.219Z,21.27
2022-09-28T22:21:53.560Z,21.23
2022-09-28T22:24:20.977Z,21.25
2022-09-28T22:26:48.453Z,21.24
2022-09-28T22:29:17.226Z,21.27
2022-09-28T22:31:45.095Z,21.24
2022-09-28T22:34:12.464Z,21.24
2022-09-28T22:36:39.816Z,21.24
2022-09-28T22:39:07.216Z,21.23
2022-09-28T22:41:34.644Z,21.19
2022-09-28T22:44:02.296Z,21.23
2022-09-28T22:46:31.180Z,21.24
2022-09-28T22:48:59.811Z,21.20
2022-09-28T22:51:28.785Z,21.19
2022-09-28T22:53:56.435Z,21.21
2022-09-28T22:56:24.234Z,21.18
2022-09-28T22:58:51.650Z,21.17
2022-09-28T23:01:20.623Z,21.19
2022-09-28T23:03:50.810Z,21.19
2022-09-28T23:06:21.439Z,21.15
2022-09-28T23:08:51.219Z,21.20
2022-09-28T23:11:18.585Z,21.23
2022-09-28T23:13:49.180Z,21.21
2022-09-28T23:16:16.767Z,21.24
2022-09-28T23:18:44.143Z,21.25
2022-09-28T23:21:14.931Z,21.24
2022-09-28T23:23:42.567Z,21.27
2022-09-28T23:26:13.780Z,21.24
2022-09-28T23:28:41.653Z,21.27
2022-09-28T23:31:10.564Z,21.28
2022-09-28T23:33:37.972Z,21.27
2022-09-28T23:36:06.030Z,21.31
2022-09-28T23:38:35.196Z,21.30
2022-09-28T23:41:02.630Z,21.28
2022-09-28T23:43:30.076Z,21.33
2022-09-28T23:45:57.512Z,21.31
2022-09-28T23:48:24.827Z,21.29
2022-09-28T23:50:52.177Z,21.30
2022-09-28T23:53:19.527Z,21.28
2022-09-28T23:55:48.298Z,21.28
2022-09-28T23:58:16.159Z,21.29
